Time;durP1;ratioP1;P1;durP2;ratioP2;P2;SDS_P1;SDS_P2;PMS_P1;PMS_P2;Temp;Humidity;BMP_temperature;BMP_pressure;BME280_temperature;BME280_humidity;BME280_pressure;Samples;Min_cycle;Max_cycle;Signal;HPM_P1;HPM_P2
2021/12/04 00:01:57;;;;;;;13.80;11.43;;;2.00;53.00;;;;;;6235980;28;20318;-54
2021/12/04 00:05:02;;;;;;;12.27;11.07;;;1.80;52.60;;;;;;6238479;28;20256;-55
2021/12/04 00:08:06;;;;;;;15.50;10.73;;;2.00;51.80;;;;;;6256349;28;20238;-54
2021/12/04 00:11:09;;;;;;;12.47;11.23;;;2.00;51.20;;;;;;6260736;28;20262;-55
2021/12/04 00:14:11;;;;;;;13.50;11.43;;;1.90;50.60;;;;;;6238074;28;20311;-54
2021/12/04 00:17:14;;;;;;;12.57;11.30;;;2.20;50.90;;;;;;6249876;28;20273;-54
2021/12/04 00:20:18;;;;;;;13.27;12.00;;;2.30;52.30;;;;;;6254650;28;20237;-54
2021/12/04 00:23:22;;;;;;;13.77;11.40;;;2.00;51.50;;;;;;6249809;28;20235;-54
2021/12/04 00:26:24;;;;;;;12.40;11.40;;;2.00;50.60;;;;;;6237827;28;20325;-53
2021/12/04 00:29:27;;;;;;;12.00;10.87;;;1.90;51.40;;;;;;6252602;28;20273;-55
2021/12/04 00:32:32;;;;;;;16.80;11.40;;;2.20;52.40;;;;;;6243848;28;20231;-55
2021/12/04 00:35:41;;;;;;;13.70;12.20;;;2.00;51.80;;;;;;6248719;28;20357;-54
2021/12/04 00:52:22;;;;;;;16.13;12.13;;;2.00;52.50;;;;;;6185345;28;20236;-55
2021/12/04 00:55:26;;;;;;;13.37;11.63;;;2.10;52.20;;;;;;6196110;28;20630;-55
2021/12/04 00:58:29;;;;;;;12.80;11.43;;;2.00;50.70;;;;;;6259507;28;20240;-54
2021/12/04 01:01:32;;;;;;;13.87;12.47;;;2.10;51.70;;;;;;6262330;28;20333;-55
2021/12/04 01:04:35;;;;;;;16.60;12.70;;;2.20;52.00;;;;;;6244814;28;20766;-55
2021/12/04 01:07:55;;;;;;;12.63;11.53;;;2.00;52.00;;;;;;6237593;28;20238;-54
2021/12/04 01:11:17;;;;;;;14.70;12.97;;;2.10;52.00;;;;;;6237412;28;20310;-54
2021/12/04 01:14:22;;;;;;;13.60;11.77;;;2.10;51.90;;;;;;6236369;28;20246;-54
2021/12/04 01:17:25;;;;;;;13.77;12.27;;;2.10;51.60;;;;;;6255863;28;20238;-55
2021/12/04 01:20:28;;;;;;;13.37;12.07;;;2.40;52.20;;;;;;6253742;28;20503;-54
2021/12/04 01:23:31;;;;;;;13.70;12.20;;;2.20;50.70;;;;;;6262403;28;20738;-54
2021/12/04 01:26:35;;;;;;;14.77;12.50;;;2.40;51.30;;;;;;6262500;28;20731;-54
2021/12/04 01:29:38;;;;;;;13.67;12.30;;;2.10;52.20;;;;;;6256028;28;20753;-56
2021/12/04 01:32:41;;;;;;;14.33;12.30;;;2.40;52.50;;;;;;6261932;28;20380;-54
2021/12/04 01:35:43;;;;;;;13.77;12.40;;;2.20;52.50;;;;;;6255094;28;20242;-56
2021/12/04 01:38:46;;;;;;;13.30;12.20;;;2.30;52.20;;;;;;6259282;28;20230;-54
2021/12/04 01:41:50;;;;;;;13.53;11.90;;;2.30;51.60;;;;;;6246176;28;20321;-55
2021/12/04 01:44:53;;;;;;;14.37;12.87;;;2.10;52.20;;;;;;6258077;28;20237;-54
2021/12/04 01:47:59;;;;;;;13.47;12.23;;;2.10;52.50;;;;;;6249132;28;20382;-55
2021/12/04 01:51:03;;;;;;;13.73;12.00;;;2.40;52.70;;;;;;6258698;28;20284;-55
2021/12/04 01:54:06;;;;;;;14.53;12.90;;;2.30;52.70;;;;;;6259315;28;20253;-54
2021/12/04 01:57:14;;;;;;;14.30;12.90;;;2.40;53.70;;;;;;6263361;28;20725;-53
2021/12/04 02:00:17;;;;;;;13.87;12.50;;;2.20;53.10;;;;;;6266591;28;20329;-56
2021/12/04 02:03:20;;;;;;;14.53;12.97;;;2.20;54.10;;;;;;6260158;28;20272;-54
2021/12/04 02:06:23;;;;;;;17.10;12.37;;;2.30;52.90;;;;;;6253021;28;20288;-53
2021/12/04 02:09:26;;;;;;;14.67;13.27;;;2.10;52.50;;;;;;6252166;28;20377;-54
2021/12/04 02:12:30;;;;;;;13.83;12.60;;;2.20;53.00;;;;;;6243534;28;20321;-54
2021/12/04 02:15:33;;;;;;;14.70;13.33;;;2.30;53.00;;;;;;6241978;28;20777;-53
2021/12/04 02:18:36;;;;;;;14.20;12.83;;;2.30;53.00;;;;;;6254547;28;20325;-54
2021/12/04 02:21:40;;;;;;;19.03;13.77;;;2.30;53.50;;;;;;6244270;28;20249;-53
2021/12/04 02:24:43;;;;;;;14.70;13.20;;;2.30;53.80;;;;;;6241739;28;20326;-55
2021/12/04 02:27:46;;;;;;;14.13;12.73;;;2.60;53.50;;;;;;6243998;28;20292;-54
2021/12/04 02:30:49;;;;;;;14.73;13.13;;;2.20;53.20;;;;;;6260002;28;20295;-53
2021/12/04 02:33:52;;;;;;;18.30;14.23;;;2.10;53.80;;;;;;6265787;28;20958;-53
2021/12/04 02:36:57;;;;;;;15.30;13.57;;;2.40;54.50;;;;;;6260643;28;20346;-53
2021/12/04 02:40:00;;;;;;;14.60;13.40;;;2.10;55.00;;;;;;6261578;28;20309;-55
2021/12/04 02:43:04;;;;;;;14.87;13.17;;;2.40;53.60;;;;;;6260748;28;20234;-53
2021/12/04 02:46:07;;;;;;;14.93;13.43;;;2.20;53.10;;;;;;6265707;28;20597;-54
2021/12/04 02:49:13;;;;;;;14.07;12.80;;;2.20;53.50;;;;;;6249679;28;20618;-54
2021/12/04 02:52:19;;;;;;;15.07;13.57;;;2.20;53.80;;;;;;6241399;28;20262;-55
2021/12/04 02:55:21;;;;;;;14.27;12.87;;;2.10;54.70;;;;;;6252539;28;20261;-56
2021/12/04 02:58:24;;;;;;;13.73;12.60;;;2.40;53.10;;;;;;6265549;28;20320;-54
2021/12/04 03:01:28;;;;;;;14.87;13.27;;;2.30;52.90;;;;;;6264347;28;20256;-54
2021/12/04 03:04:32;;;;;;;15.60;13.97;;;1.70;53.50;;;;;;6256913;28;20968;-54
2021/12/04 03:07:44;;;;;;;17.33;14.00;;;2.20;53.80;;;;;;6244452;28;20801;-55
2021/12/04 03:10:48;;;;;;;15.63;13.30;;;2.30;54.40;;;;;;6240039;28;20280;-53
2021/12/04 03:13:50;;;;;;;13.87;12.67;;;2.30;54.10;;;;;;6232471;28;20718;-54
2021/12/04 03:16:53;;;;;;;13.57;12.37;;;2.50;54.00;;;;;;6245598;28;20682;-54
2021/12/04 03:19:56;;;;;;;14.77;12.93;;;2.30;54.10;;;;;;6255709;28;20328;-53
2021/12/04 03:23:01;;;;;;;15.03;13.57;;;2.50;53.30;;;;;;6264755;28;20245;-54
2021/12/04 03:26:09;;;;;;;13.97;12.67;;;2.30;53.60;;;;;;6264610;28;20287;-55
2021/12/04 03:29:15;;;;;;;14.23;12.97;;;2.30;53.00;;;;;;6260105;28;20276;-54
2021/12/04 03:42:23;;;;;;;14.97;12.47;;;2.50;54.40;;;;;;6256069;28;20325;-55
2021/12/04 03:45:26;;;;;;;15.00;13.57;;;2.40;54.10;;;;;;6262820;28;20320;-54
2021/12/04 03:51:50;;;;;;;16.13;14.43;;;2.50;54.40;;;;;;6235073;28;20259;-54
2021/12/04 03:54:54;;;;;;;14.60;13.20;;;1.90;53.90;;;;;;6256220;28;20233;-54
2021/12/04 03:57:56;;;;;;;16.80;14.67;;;2.30;54.90;;;;;;6260922;28;20279;-54
2021/12/04 04:00:59;;;;;;;14.80;13.50;;;2.20;54.70;;;;;;6238188;28;20326;-55
2021/12/04 04:04:02;;;;;;;14.60;13.20;;;2.30;54.50;;;;;;6238342;28;20284;-54
2021/12/04 04:07:06;;;;;;;15.93;13.97;;;2.40;55.80;;;;;;6239458;28;20332;-54
2021/12/04 04:10:10;;;;;;;15.50;13.87;;;2.50;55.00;;;;;;6239490;28;20654;-55
2021/12/04 04:13:13;;;;;;;15.50;13.83;;;2.30;54.90;;;;;;6261420;28;20264;-54
2021/12/04 04:16:16;;;;;;;14.70;13.30;;;2.40;54.70;;;;;;6261449;28;20245;-54
2021/12/04 04:19:18;;;;;;;15.10;13.57;;;2.40;54.10;;;;;;6248222;28;20230;-54
2021/12/04 04:22:21;;;;;;;15.03;13.60;;;2.50;54.30;;;;;;6246624;28;20244;-54
2021/12/04 04:25:25;;;;;;;16.70;14.93;;;2.50;53.80;;;;;;6253852;28;20234;-54
2021/12/04 04:28:28;;;;;;;16.33;14.20;;;2.40;54.50;;;;;;6261289;28;20318;-54
2021/12/04 04:31:31;;;;;;;20.07;15.53;;;2.30;54.80;;;;;;6239541;28;20793;-54
2021/12/04 04:34:36;;;;;;;17.43;15.10;;;2.40;55.70;;;;;;6252676;28;20234;-54
2021/12/04 04:37:45;;;;;;;17.33;15.50;;;2.40;55.50;;;;;;6260542;28;20387;-54
2021/12/04 04:57:44;;;;;;;16.83;15.13;;;2.50;56.40;;;;;;6254681;28;20617;-51
2021/12/04 05:01:11;;;;;;;16.53;14.80;;;2.30;56.20;;;;;;6249160;28;20238;-53
2021/12/04 05:11:10;;;;;;;17.17;15.30;;;2.30;54.90;;;;;;6251497;28;20234;-56
2021/12/04 05:14:19;;;;;;;17.63;15.83;;;2.40;55.20;;;;;;6251966;28;20519;-51
2021/12/04 05:17:30;;;;;;;17.20;15.47;;;2.30;56.10;;;;;;6251791;28;20245;-55
2021/12/04 05:20:35;;;;;;;18.00;16.27;;;2.40;55.80;;;;;;6254626;28;20303;-55
2021/12/04 05:23:41;;;;;;;16.87;15.27;;;2.30;55.60;;;;;;6259204;28;20234;-55
2021/12/04 05:26:44;;;;;;;18.27;16.20;;;2.30;56.60;;;;;;6256390;28;20238;-54
2021/12/04 05:29:48;;;;;;;17.07;15.37;;;2.20;56.20;;;;;;6257158;28;20245;-54
2021/12/04 05:32:51;;;;;;;17.63;15.83;;;2.20;56.20;;;;;;6247685;28;20249;-55
2021/12/04 05:35:54;;;;;;;17.43;15.73;;;2.20;56.20;;;;;;6259623;28;20284;-53
2021/12/04 05:38:57;;;;;;;17.40;15.67;;;2.40;56.20;;;;;;6253514;28;20744;-54
2021/12/04 05:42:00;;;;;;;16.93;15.17;;;2.20;56.00;;;;;;6248653;28;20312;-54
2021/12/04 05:45:08;;;;;;;17.37;15.53;;;2.30;56.70;;;;;;6255965;28;20256;-60
2021/12/04 05:48:13;;;;;;;17.43;15.60;;;2.50;56.40;;;;;;6248988;28;20611;-55
2021/12/04 05:51:27;;;;;;;18.03;16.10;;;2.30;56.20;;;;;;6260642;28;20313;-54
2021/12/04 05:54:45;;;;;;;16.73;15.13;;;2.10;57.70;;;;;;6246239;28;20239;-55
2021/12/04 05:57:48;;;;;;;15.67;14.17;;;2.30;56.90;;;;;;6259511;28;20299;-53
2021/12/04 06:00:54;;;;;;;16.10;14.53;;;2.30;57.00;;;;;;6253065;28;20233;-55
2021/12/04 06:03:57;;;;;;;15.60;14.13;;;2.30;56.20;;;;;;6260054;28;20521;-55
2021/12/04 06:07:00;;;;;;;15.80;14.13;;;2.20;56.10;;;;;;6261793;28;20492;-58
2021/12/04 06:10:04;;;;;;;17.67;14.23;;;2.30;56.80;;;;;;6252658;28;20291;-54
2021/12/04 06:13:07;;;;;;;17.00;15.20;;;2.20;57.50;;;;;;6250455;28;20345;-55
2021/12/04 06:16:11;;;;;;;15.23;13.63;;;2.10;56.80;;;;;;6256015;28;20366;-54
2021/12/04 06:19:26;;;;;;;14.43;13.13;;;2.10;56.60;;;;;;6258682;28;20613;-54
2021/12/04 06:22:37;;;;;;;15.00;13.60;;;2.10;56.80;;;;;;6261297;28;20234;-53
2021/12/04 06:25:40;;;;;;;15.67;14.00;;;2.00;57.60;;;;;;6250736;28;20241;-54
2021/12/04 06:28:43;;;;;;;15.53;13.50;;;2.30;56.80;;;;;;6254733;28;20717;-53
2021/12/04 06:31:47;;;;;;;14.53;13.23;;;2.20;56.90;;;;;;6262443;28;20253;-53
2021/12/04 06:34:52;;;;;;;15.47;13.97;;;2.10;56.80;;;;;;6253571;28;20714;-54
2021/12/04 06:37:54;;;;;;;16.10;14.50;;;2.10;57.00;;;;;;6261999;28;20444;-54
2021/12/04 06:40:57;;;;;;;16.07;14.37;;;2.10;57.20;;;;;;6261234;28;20230;-55
2021/12/04 06:44:00;;;;;;;15.83;14.27;;;2.00;56.90;;;;;;6262163;28;20231;-56
2021/12/04 06:47:04;;;;;;;16.37;13.90;;;2.20;57.10;;;;;;6261375;28;20265;-54
2021/12/04 06:50:13;;;;;;;16.00;14.10;;;2.10;57.00;;;;;;6258967;28;20359;-54
2021/12/04 06:53:23;;;;;;;15.20;13.80;;;2.20;57.70;;;;;;6262944;28;20226;-53
2021/12/04 06:56:32;;;;;;;15.53;13.97;;;2.20;57.00;;;;;;6262566;28;20717;-54
2021/12/04 06:59:35;;;;;;;15.83;14.37;;;2.10;57.00;;;;;;6256403;28;20677;-54
2021/12/04 07:02:39;;;;;;;16.57;14.13;;;2.20;57.40;;;;;;6260406;28;20233;-54
2021/12/04 07:05:42;;;;;;;16.70;14.83;;;2.10;57.60;;;;;;6264460;28;20238;-55
2021/12/04 07:08:44;;;;;;;19.97;14.53;;;2.10;57.20;;;;;;6259247;28;20293;-54
2021/12/04 07:11:47;;;;;;;16.23;14.67;;;2.20;57.30;;;;;;6262108;28;20279;-53
2021/12/04 07:14:50;;;;;;;15.33;13.97;;;2.10;57.20;;;;;;6259132;28;20657;-53
2021/12/04 07:17:54;;;;;;;16.00;14.50;;;2.10;56.50;;;;;;6261386;28;20310;-53
2021/12/04 07:20:57;;;;;;;15.87;13.57;;;2.20;57.00;;;;;;6261088;28;20261;-54
2021/12/04 07:24:00;;;;;;;15.33;13.90;;;2.30;57.10;;;;;;6257699;28;20441;-55
2021/12/04 07:27:05;;;;;;;14.37;13.00;;;2.60;58.10;;;;;;6247743;28;20806;-55
2021/12/04 07:30:09;;;;;;;15.57;13.47;;;2.30;56.90;;;;;;6246105;28;20312;-56
2021/12/04 07:33:13;;;;;;;13.43;12.23;;;2.30;56.20;;;;;;6254134;28;20256;-56
2021/12/04 07:36:16;;;;;;;14.27;12.47;;;2.40;54.30;;;;;;6260978;28;20719;-55
2021/12/04 07:39:19;;;;;;;12.57;11.43;;;2.40;54.10;;;;;;6258421;28;20785;-55
2021/12/04 07:42:22;;;;;;;15.53;11.90;;;2.50;54.00;;;;;;6256698;28;20238;-56
2021/12/04 07:45:25;;;;;;;13.67;12.30;;;2.50;53.80;;;;;;6247167;28;20265;-55
2021/12/04 07:48:29;;;;;;;13.37;12.20;;;2.40;53.60;;;;;;6257834;28;20299;-55
2021/12/04 07:51:32;;;;;;;13.13;11.77;;;2.40;55.00;;;;;;6252065;28;20230;-53
2021/12/04 07:54:35;;;;;;;13.73;12.50;;;2.50;54.70;;;;;;6255716;28;20234;-56
2021/12/04 07:57:38;;;;;;;13.70;12.53;;;2.40;53.40;;;;;;6251260;28;20768;-56
2021/12/04 08:00:41;;;;;;;14.37;13.07;;;2.70;54.00;;;;;;6258525;28;20343;-56
2021/12/04 08:03:45;;;;;;;13.03;11.93;;;2.40;54.60;;;;;;6252270;28;20234;-56
2021/12/04 08:06:48;;;;;;;14.33;11.93;;;2.50;53.30;;;;;;6256106;28;20242;-56
2021/12/04 08:09:51;;;;;;;12.63;11.37;;;2.10;53.20;;;;;;6254436;28;20650;-55
2021/12/04 08:12:54;;;;;;;15.00;10.93;;;2.40;53.70;;;;;;6257093;28;20234;-55
2021/12/04 08:15:56;;;;;;;11.83;10.70;;;2.30;54.20;;;;;;6251198;28;20320;-56
2021/12/04 08:19:01;;;;;;;11.73;10.60;;;2.50;52.80;;;;;;6256287;28;20728;-56
2021/12/04 08:22:04;;;;;;;12.23;11.13;;;2.60;53.70;;;;;;6251386;28;20238;-55
2021/12/04 08:25:08;;;;;;;15.87;12.53;;;2.50;52.40;;;;;;6257909;28;20875;-55
2021/12/04 08:28:11;;;;;;;14.37;11.73;;;2.60;52.20;;;;;;6242066;28;20308;-56
2021/12/04 08:31:15;;;;;;;15.33;12.23;;;2.60;53.20;;;;;;6253290;28;20241;-56
2021/12/04 08:34:20;;;;;;;15.90;12.63;;;2.50;53.90;;;;;;6259461;28;20241;-55
2021/12/04 08:37:23;;;;;;;14.10;12.40;;;2.30;53.70;;;;;;6255297;28;20246;-55
2021/12/04 08:40:27;;;;;;;15.07;13.13;;;2.60;54.30;;;;;;6246593;28;20234;-56
2021/12/04 08:43:30;;;;;;;14.13;11.63;;;2.50;54.80;;;;;;6255730;28;20242;-55
2021/12/04 08:46:37;;;;;;;13.07;11.50;;;2.70;53.00;;;;;;6252364;28;20252;-56
2021/12/04 08:49:43;;;;;;;11.37;10.30;;;2.60;53.30;;;;;;6252257;28;20233;-55
2021/12/04 08:52:47;;;;;;;11.27;10.20;;;2.70;52.50;;;;;;6258270;28;20325;-55
2021/12/04 08:55:49;;;;;;;12.43;10.80;;;2.80;50.10;;;;;;6245102;28;20276;-55
2021/12/04 08:58:52;;;;;;;11.93;10.87;;;2.80;50.10;;;;;;6256035;28;20234;-56
2021/12/04 09:01:55;;;;;;;12.77;11.57;;;2.80;50.60;;;;;;6257196;28;20266;-56
2021/12/04 09:05:00;;;;;;;16.07;11.80;;;2.80;49.80;;;;;;6253669;28;20246;-53
2021/12/04 09:08:04;;;;;;;12.53;11.43;;;3.00;51.20;;;;;;6254130;28;20238;-54
2021/12/04 09:11:12;;;;;;;13.53;12.37;;;3.00;52.30;;;;;;6244404;28;20863;-54
2021/12/04 09:14:17;;;;;;;14.03;12.77;;;2.70;51.70;;;;;;6250288;28;20242;-56
2021/12/04 09:17:21;;;;;;;17.43;13.50;;;2.90;52.50;;;;;;6231768;28;20790;-56
2021/12/04 09:20:28;;;;;;;13.77;12.57;;;3.10;53.00;;;;;;6247036;28;20253;-55
2021/12/04 09:23:34;;;;;;;14.10;12.03;;;2.70;51.40;;;;;;6249338;28;20618;-56
2021/12/04 09:26:44;;;;;;;14.30;12.83;;;2.70;52.20;;;;;;6247062;28;20232;-51
2021/12/04 09:30:07;;;;;;;15.40;13.77;;;2.60;52.60;;;;;;6246142;28;20556;-56
2021/12/04 09:59:08;;;;;;;14.00;12.57;;;2.90;52.20;;;;;;6220932;28;20794;-55
2021/12/04 10:00:50;;;;;;;15.17;13.67;;;2.80;52.30;;;;;;6246301;28;20376;-55
2021/12/04 10:04:17;;;;;;;15.33;13.83;;;2.70;51.80;;;;;;6249185;28;20238;-55
2021/12/04 10:21:52;;;;;;;17.03;14.23;;;2.60;53.20;;;;;;6292757;28;20441;-55
2021/12/04 10:32:01;;;;;;;21.07;17.60;;;2.60;54.70;;;;;;6295156;28;20661;-55
2021/12/04 10:35:25;;;;;;;15.67;13.97;;;2.60;53.50;;;;;;6308530;28;20237;-55
2021/12/04 10:38:31;;;;;;;15.90;14.30;;;2.80;52.40;;;;;;6302959;28;20236;-55
2021/12/04 10:41:37;;;;;;;16.00;14.50;;;2.80;53.00;;;;;;6316571;28;20366;-55
2021/12/04 10:44:48;;;;;;;15.63;14.03;;;3.00;51.30;;;;;;6299383;28;20611;-55
2021/12/04 10:47:52;;;;;;;15.07;13.67;;;2.90;51.50;;;;;;6299692;28;20750;-56
2021/12/04 10:51:03;;;;;;;14.23;12.93;;;2.80;52.10;;;;;;6308111;28;20402;-56
2021/12/04 10:54:16;;;;;;;14.37;13.00;;;2.70;51.60;;;;;;6304810;28;20247;-54
2021/12/04 10:57:53;;;;;;;15.00;13.60;;;2.80;51.90;;;;;;6308633;28;20301;-56
2021/12/04 11:01:09;;;;;;;14.10;12.70;;;2.80;52.30;;;;;;6300073;28;20233;-54
2021/12/04 11:04:23;;;;;;;14.10;12.77;;;2.90;51.50;;;;;;6303989;28;20588;-55
2021/12/04 11:21:36;;;;;;;16.83;14.97;;;2.80;50.60;;;;;;6301717;28;20678;-55
2021/12/04 11:25:12;;;;;;;17.13;15.00;;;3.20;50.80;;;;;;6309320;28;20548;-55
2021/12/04 11:28:26;;;;;;;15.60;14.07;;;3.00;50.60;;;;;;6297279;28;20275;-55
2021/12/04 11:35:26;;;;;;;16.27;14.57;;;3.00;51.70;;;;;;6286133;28;20704;-56
2021/12/04 11:38:36;;;;;;;16.47;14.70;;;3.00;51.00;;;;;;6288612;28;20682;-55
2021/12/04 11:41:43;;;;;;;16.47;14.90;;;3.00;49.90;;;;;;6277776;28;20706;-56
2021/12/04 11:44:50;;;;;;;16.13;14.43;;;3.20;49.50;;;;;;6272772;28;20387;-56
2021/12/04 11:47:56;;;;;;;17.23;15.43;;;3.30;50.80;;;;;;6277362;28;20234;-56
2021/12/04 11:50:59;;;;;;;16.10;14.50;;;3.30;50.60;;;;;;6284254;28;20959;-56
2021/12/04 11:54:12;;;;;;;16.33;14.83;;;3.20;49.30;;;;;;6287421;28;20385;-55
2021/12/04 11:57:18;;;;;;;15.37;13.97;;;3.30;47.90;;;;;;6289203;28;20467;-56
2021/12/04 12:00:27;;;;;;;15.67;14.27;;;3.50;47.70;;;;;;6279960;28;20371;-55
2021/12/04 12:03:32;;;;;;;15.87;14.37;;;3.20;47.10;;;;;;6272539;28;20262;-56
2021/12/04 12:06:38;;;;;;;17.63;15.93;;;3.30;48.70;;;;;;6285830;28;20290;-55
2021/12/04 12:09:41;;;;;;;16.93;15.13;;;3.20;47.30;;;;;;6290380;28;20257;-54
2021/12/04 12:12:48;;;;;;;16.10;14.50;;;3.40;48.10;;;;;;6283695;28;20298;-61
2021/12/04 12:15:59;;;;;;;16.53;14.93;;;3.30;48.30;;;;;;6287742;28;20284;-54
2021/12/04 12:19:08;;;;;;;16.53;14.90;;;3.10;48.30;;;;;;6290810;28;20368;-54
2021/12/04 12:22:28;;;;;;;16.63;15.03;;;3.20;48.30;;;;;;6282309;28;20317;-54
2021/12/04 12:25:47;;;;;;;14.63;13.33;;;3.10;49.50;;;;;;6295984;28;21341;-56
2021/12/04 12:32:23;;;;;;;16.77;15.07;;;3.20;47.10;;;;;;6293407;28;20229;-54
2021/12/04 12:38:53;;;;;;;16.80;15.00;;;3.40;47.70;;;;;;6284662;28;20229;-55
2021/12/04 12:41:55;;;;;;;17.60;15.80;;;3.10;48.60;;;;;;6290791;28;20461;-56
2021/12/04 12:45:23;;;;;;;15.27;13.93;;;3.30;48.10;;;;;;6288363;28;20237;-55
2021/12/04 12:48:29;;;;;;;14.90;13.50;;;3.00;48.50;;;;;;6289737;28;20603;-55
2021/12/04 12:51:35;;;;;;;14.53;13.13;;;3.00;46.60;;;;;;6284913;28;20253;-58
2021/12/04 12:54:41;;;;;;;14.23;13.03;;;3.10;46.80;;;;;;6282083;28;20306;-56
2021/12/04 12:57:45;;;;;;;15.10;13.60;;;3.20;44.90;;;;;;6280570;28;20482;-55
2021/12/04 13:14:32;;;;;;;14.47;13.17;;;3.10;45.30;;;;;;6287302;28;20302;-55
2021/12/04 13:17:38;;;;;;;13.73;12.47;;;3.10;45.30;;;;;;6293219;28;20712;-54
2021/12/04 13:20:41;;;;;;;15.13;13.73;;;3.10;45.00;;;;;;6287400;28;20233;-54
2021/12/04 13:23:48;;;;;;;13.77;12.47;;;3.20;45.00;;;;;;6292091;28;20237;-54
2021/12/04 13:26:53;;;;;;;12.73;11.73;;;3.60;44.80;;;;;;6283630;28;20290;-55
2021/12/04 13:29:58;;;;;;;12.50;11.50;;;3.40;43.60;;;;;;6278693;28;20282;-55
2021/12/04 13:33:08;;;;;;;11.30;10.37;;;3.10;43.90;;;;;;6285909;28;20320;-56
2021/12/04 13:36:15;;;;;;;13.57;12.07;;;3.50;43.30;;;;;;6282503;28;20291;-55
2021/12/04 13:39:18;;;;;;;14.40;12.63;;;3.50;43.40;;;;;;6286396;28;20238;-54
2021/12/04 13:42:21;;;;;;;12.60;11.50;;;3.30;43.50;;;;;;6287844;28;20233;-54
2021/12/04 13:45:24;;;;;;;15.43;13.83;;;3.30;45.70;;;;;;6285770;28;20309;-53
2021/12/04 13:48:35;;;;;;;16.93;15.00;;;3.10;45.80;;;;;;6286114;28;20311;-54
2021/12/04 13:51:38;;;;;;;15.63;14.23;;;3.30;47.00;;;;;;6284539;28;20718;-54
2021/12/04 13:54:46;;;;;;;17.00;15.30;;;3.30;48.40;;;;;;6291586;28;20237;-55
2021/12/04 13:57:50;;;;;;;17.10;15.27;;;3.30;47.90;;;;;;6285531;28;20237;-55
2021/12/04 14:00:54;;;;;;;17.03;15.33;;;3.10;47.80;;;;;;6279475;28;20298;-55
2021/12/04 14:04:02;;;;;;;17.03;15.43;;;3.30;48.30;;;;;;6285761;28;20701;-56
2021/12/04 14:07:05;;;;;;;20.83;17.13;;;3.50;47.90;;;;;;6284679;28;20375;-55
2021/12/04 14:10:15;;;;;;;20.77;18.10;;;3.40;47.10;;;;;;6286540;28;20391;-56
2021/12/04 14:13:20;;;;;;;19.77;17.33;;;3.20;46.80;;;;;;6286376;28;20808;-55
2021/12/04 14:16:24;;;;;;;20.73;17.43;;;3.50;46.50;;;;;;6287846;28;20237;-55
2021/12/04 14:19:30;;;;;;;21.27;17.90;;;3.40;46.60;;;;;;6290452;28;20225;-55
2021/12/04 14:22:32;;;;;;;23.33;18.50;;;3.60;46.90;;;;;;6285018;28;20233;-53
2021/12/04 14:25:43;;;;;;;20.30;18.20;;;3.40;47.70;;;;;;6291610;28;20606;-54
2021/12/04 14:28:46;;;;;;;25.23;19.87;;;3.10;47.10;;;;;;6279875;28;20300;-55
2021/12/04 14:31:49;;;;;;;26.07;19.00;;;3.20;46.70;;;;;;6276432;28;20237;-55
2021/12/04 14:34:57;;;;;;;25.70;20.90;;;3.40;48.50;;;;;;6285805;28;20233;-55
2021/12/04 14:38:02;;;;;;;23.90;19.63;;;3.40;49.30;;;;;;6282840;28;20309;-55
2021/12/04 14:41:07;;;;;;;22.27;18.40;;;3.20;48.10;;;;;;6281113;28;20324;-54
2021/12/04 14:44:12;;;;;;;25.97;21.23;;;3.50;49.70;;;;;;6280145;28;20950;-54
2021/12/04 14:47:17;;;;;;;26.10;21.13;;;3.30;47.00;;;;;;6279869;28;20521;-55
2021/12/04 14:50:21;;;;;;;24.07;20.17;;;3.40;47.70;;;;;;6279099;28;20527;-56
2021/12/04 14:53:24;;;;;;;22.80;20.40;;;3.40;47.40;;;;;;6277050;28;20265;-56
2021/12/04 14:56:30;;;;;;;25.53;20.40;;;3.30;46.90;;;;;;6275046;28;20244;-55
2021/12/04 14:59:35;;;;;;;27.37;22.10;;;2.70;47.30;;;;;;6274989;28;20253;-55
2021/12/04 15:02:38;;;;;;;24.53;20.30;;;3.50;48.50;;;;;;6286092;28;20813;-54
2021/12/04 15:05:46;;;;;;;24.93;20.57;;;3.20;48.00;;;;;;6284057;28;20240;-54
2021/12/04 15:08:52;;;;;;;23.57;19.87;;;3.20;47.80;;;;;;6281241;28;20317;-55
2021/12/04 15:11:55;;;;;;;22.73;20.33;;;3.20;48.20;;;;;;6288878;28;20264;-54
2021/12/04 15:15:01;;;;;;;20.97;18.73;;;3.20;48.50;;;;;;6281131;28;20660;-55
2021/12/04 15:18:10;;;;;;;20.33;18.23;;;3.20;48.50;;;;;;6285445;28;20778;-55
2021/12/04 15:21:17;;;;;;;19.97;17.93;;;3.10;47.90;;;;;;6284092;28;20325;-52
2021/12/04 15:24:24;;;;;;;21.30;19.03;;;3.40;48.10;;;;;;6281856;28;20363;-56
2021/12/04 15:27:29;;;;;;;22.10;19.50;;;3.30;47.90;;;;;;6280474;28;20233;-58
2021/12/04 15:30:33;;;;;;;21.03;18.30;;;3.30;48.30;;;;;;6287867;28;20505;-56
2021/12/04 15:33:38;;;;;;;22.20;19.77;;;3.00;48.50;;;;;;6295535;28;20692;-56
2021/12/04 15:37:05;;;;;;;22.80;20.30;;;3.20;49.60;;;;;;6290300;28;20237;-55
2021/12/04 15:40:23;;;;;;;21.70;18.53;;;3.00;50.10;;;;;;6282468;28;20314;-56
2021/12/04 15:43:33;;;;;;;23.40;19.20;;;2.90;51.90;;;;;;6288239;28;20383;-56
2021/12/04 15:46:45;;;;;;;20.30;18.07;;;2.90;51.10;;;;;;6277176;28;20307;-56
2021/12/04 15:53:10;;;;;;;20.10;18.00;;;2.90;51.60;;;;;;6284149;28;20237;-55
2021/12/04 15:56:13;;;;;;;20.67;17.67;;;2.90;50.60;;;;;;6290191;28;20389;-56
2021/12/04 15:59:18;;;;;;;18.53;16.70;;;2.90;49.80;;;;;;6287801;28;20277;-55
2021/12/04 16:02:30;;;;;;;18.17;16.33;;;2.90;50.90;;;;;;6285778;28;20237;-56
2021/12/04 16:05:38;;;;;;;17.27;15.57;;;3.10;50.20;;;;;;6280791;28;20387;-54
2021/12/04 16:08:43;;;;;;;17.97;16.27;;;2.90;48.30;;;;;;6280831;28;20769;-55
2021/12/04 16:11:47;;;;;;;17.57;15.70;;;2.80;47.50;;;;;;6282291;28;20741;-49
2021/12/04 16:14:54;;;;;;;19.10;16.57;;;2.90;47.70;;;;;;6284334;28;20302;-55
2021/12/04 16:17:57;;;;;;;15.90;14.40;;;2.80;48.90;;;;;;6281710;28;20229;-56
2021/12/04 16:21:01;;;;;;;16.33;14.63;;;2.90;47.70;;;;;;6287168;28;20233;-55
2021/12/04 16:24:06;;;;;;;15.37;13.97;;;2.80;47.70;;;;;;6272431;28;20237;-55
2021/12/04 16:27:17;;;;;;;17.53;15.83;;;2.90;47.00;;;;;;6284493;28;20317;-56
2021/12/04 16:33:44;;;;;;;14.63;13.23;;;2.80;47.50;;;;;;6277861;28;20714;-57
2021/12/04 16:37:03;;;;;;;15.60;14.20;;;2.90;47.50;;;;;;6277224;28;20246;-56
2021/12/04 16:40:11;;;;;;;16.87;14.83;;;2.70;46.60;;;;;;6289780;28;20829;-56
2021/12/04 16:43:20;;;;;;;16.77;14.97;;;2.80;45.70;;;;;;6285216;28;20233;-59
2021/12/04 16:46:25;;;;;;;16.73;15.20;;;2.70;45.00;;;;;;6282325;28;20328;-58
2021/12/04 16:49:28;;;;;;;15.87;14.47;;;2.90;45.90;;;;;;6284933;28;20627;-56
2021/12/04 16:56:17;;;;;;;16.77;15.17;;;3.00;47.70;;;;;;6240967;28;20562;-55
2021/12/04 16:59:22;;;;;;;18.60;16.70;;;2.90;47.50;;;;;;6267959;28;20323;-51
2021/12/04 17:02:26;;;;;;;18.10;16.37;;;3.00;48.10;;;;;;6276839;28;20570;-60
2021/12/04 17:05:32;;;;;;;18.47;16.57;;;2.80;47.60;;;;;;6281693;28;20288;-57
2021/12/04 17:08:35;;;;;;;19.03;16.37;;;3.00;47.70;;;;;;6273831;28;20510;-56
2021/12/04 17:11:40;;;;;;;19.00;17.20;;;3.10;47.50;;;;;;6282253;28;20362;-55
2021/12/04 17:14:43;;;;;;;20.03;17.90;;;2.80;48.30;;;;;;6281006;28;20259;-56
2021/12/04 17:17:47;;;;;;;21.13;18.93;;;3.10;48.30;;;;;;6279226;28;20797;-55
2021/12/04 17:20:51;;;;;;;19.57;17.50;;;2.80;47.50;;;;;;6282058;28;20471;-56
2021/12/04 17:23:54;;;;;;;19.30;17.40;;;2.90;49.50;;;;;;6272624;28;20797;-56
2021/12/04 17:27:01;;;;;;;18.73;16.77;;;2.90;49.30;;;;;;6281007;28;20721;-56
2021/12/04 17:30:06;;;;;;;18.17;16.30;;;2.70;49.70;;;;;;6279783;28;20237;-55
2021/12/04 17:33:10;;;;;;;19.80;17.70;;;2.90;51.80;;;;;;6276198;28;20245;-56
2021/12/04 17:36:13;;;;;;;20.03;17.97;;;2.80;51.20;;;;;;6279782;28;20256;-56
2021/12/04 17:39:18;;;;;;;21.93;17.87;;;2.60;51.10;;;;;;6281324;28;20242;-56
2021/12/04 17:42:23;;;;;;;19.40;17.23;;;2.80;52.10;;;;;;6280656;28;20810;-54
2021/12/04 17:45:27;;;;;;;20.03;17.97;;;2.90;51.40;;;;;;6278435;28;20347;-56
2021/12/04 17:48:31;;;;;;;18.83;16.97;;;2.70;50.60;;;;;;6276887;28;20326;-56
2021/12/04 17:51:34;;;;;;;21.70;18.57;;;2.80;49.70;;;;;;6280686;28;20225;-55
2021/12/04 17:54:37;;;;;;;19.23;17.23;;;2.90;50.00;;;;;;6281710;28;20374;-56
2021/12/04 17:57:41;;;;;;;16.97;15.37;;;2.80;49.50;;;;;;6270190;28;20415;-57
2021/12/04 18:00:48;;;;;;;17.47;15.67;;;2.80;49.40;;;;;;6272224;28;20264;-55
2021/12/04 18:03:52;;;;;;;17.60;15.90;;;2.90;47.90;;;;;;6276247;28;20242;-56
2021/12/04 18:06:56;;;;;;;17.93;16.17;;;3.00;48.20;;;;;;6275262;28;20237;-55
2021/12/04 18:10:02;;;;;;;18.33;16.47;;;2.80;49.10;;;;;;6279845;28;20237;-55
2021/12/04 18:13:13;;;;;;;16.40;14.93;;;2.90;49.40;;;;;;6279559;28;20233;-56
2021/12/04 18:16:19;;;;;;;17.20;15.70;;;2.90;48.40;;;;;;6274586;28;20239;-55
2021/12/04 18:19:25;;;;;;;16.40;14.93;;;2.80;47.60;;;;;;6288235;28;20237;-56